Terminal Aerodrome Forecast
Issued by NWS Sterling, VA

Home | Current Version | Previous Version | Text Only | Print | Product List | Glossary On
Versions: 1 2 3 4 5 6 7 8 9 10 11 12 13 14 15 16 17 18 19 20 21 22 23
469
FTUS41 KLWX 272340
TAFBWI
TAF
KBWI 272340Z 2800/2906 VRB03KT P6SM BKN150
     FM280600 VRB03KT 4SM BR BKN050
     FM280900 VRB03KT 2SM BR BKN050
     FM281200 VRB03KT 2SM BR OVC010
     FM281700 18005KT P6SM -SHRA OVC080
     FM282200 24006KT P6SM -SHRA OVC040
     FM290000 29005KT P6SM BKN040
     FM290300 32008KT 5SM BR BKN010=

USA.gov is the U.S. government's official web portal to all federal, state and local government web resources and services.